sensor_id;sensor_type;location;lat;lon;timestamp;temperature;humidity
22436;DHT22;11385;50.822;4.324;2023-01-26T00:01:49;1.50;99.90
22436;DHT22;11385;50.822;4.324;2023-01-26T00:04:15;1.50;99.90
22436;DHT22;11385;50.822;4.324;2023-01-26T00:06:42;1.50;99.90
22436;DHT22;11385;50.822;4.324;2023-01-26T00:09:11;1.50;99.90
22436;DHT22;11385;50.822;4.324;2023-01-26T00:11:39;1.40;99.90
22436;DHT22;11385;50.822;4.324;2023-01-26T00:14:05;1.50;99.90
22436;DHT22;11385;50.822;4.324;2023-01-26T00:16:32;1.40;99.90
22436;DHT22;11385;50.822;4.324;2023-01-26T00:18:59;1.50;99.90
22436;DHT22;11385;50.822;4.324;2023-01-26T00:21:26;1.50;99.90
22436;DHT22;11385;50.822;4.324;2023-01-26T00:23:53;1.50;99.90
22436;DHT22;11385;50.822;4.324;2023-01-26T00:26:22;1.50;99.90
22436;DHT22;11385;50.822;4.324;2023-01-26T00:28:49;1.50;99.90
22436;DHT22;11385;50.822;4.324;2023-01-26T00:31:19;1.60;99.90
22436;DHT22;11385;50.822;4.324;2023-01-26T00:33:46;1.50;99.90
22436;DHT22;11385;50.822;4.324;2023-01-26T00:36:14;1.50;99.90
22436;DHT22;11385;50.822;4.324;2023-01-26T00:38:41;1.60;99.90
22436;DHT22;11385;50.822;4.324;2023-01-26T00:41:08;1.60;99.90
22436;DHT22;11385;50.822;4.324;2023-01-26T00:43:37;1.50;99.90
22436;DHT22;11385;50.822;4.324;2023-01-26T00:46:04;1.60;99.90
22436;DHT22;11385;50.822;4.324;2023-01-26T00:48:30;1.60;99.90
22436;DHT22;11385;50.822;4.324;2023-01-26T00:50:57;1.50;99.90
22436;DHT22;11385;50.822;4.324;2023-01-26T00:53:23;1.50;99.90
22436;DHT22;11385;50.822;4.324;2023-01-26T00:55:50;1.50;99.90
22436;DHT22;11385;50.822;4.324;2023-01-26T00:58:18;1.60;99.90
22436;DHT22;11385;50.822;4.324;2023-01-26T01:00:45;1.60;99.90
22436;DHT22;11385;50.822;4.324;2023-01-26T01:03:12;1.50;99.90
22436;DHT22;11385;50.822;4.324;2023-01-26T01:05:38;1.50;99.90
22436;DHT22;11385;50.822;4.324;2023-01-26T01:08:05;1.50;99.90
22436;DHT22;11385;50.822;4.324;2023-01-26T01:10:32;1.60;99.90
22436;DHT22;11385;50.822;4.324;2023-01-26T01:12:59;1.50;99.90
22436;DHT22;11385;50.822;4.324;2023-01-26T01:15:25;1.50;99.90
22436;DHT22;11385;50.822;4.324;2023-01-26T01:17:52;1.60;99.90
22436;DHT22;11385;50.822;4.324;2023-01-26T01:20:19;1.50;99.90
22436;DHT22;11385;50.822;4.324;2023-01-26T01:22:45;1.50;99.90
22436;DHT22;11385;50.822;4.324;2023-01-26T01:25:12;1.60;99.90
22436;DHT22;11385;50.822;4.324;2023-01-26T01:27:39;1.60;99.90
22436;DHT22;11385;50.822;4.324;2023-01-26T01:30:07;1.60;99.90
22436;DHT22;11385;50.822;4.324;2023-01-26T01:32:35;1.50;99.90
22436;DHT22;11385;50.822;4.324;2023-01-26T01:35:02;1.60;99.90
22436;DHT22;11385;50.822;4.324;2023-01-26T01:37:29;1.70;99.90
22436;DHT22;11385;50.822;4.324;2023-01-26T01:39:55;1.70;99.90
22436;DHT22;11385;50.822;4.324;2023-01-26T01:42:22;1.60;99.90
22436;DHT22;11385;50.822;4.324;2023-01-26T01:47:33;1.50;99.90
22436;DHT22;11385;50.822;4.324;2023-01-26T01:50:00;1.50;99.90
22436;DHT22;11385;50.822;4.324;2023-01-26T01:52:30;1.60;99.90
22436;DHT22;11385;50.822;4.324;2023-01-26T01:55:02;1.60;99.90
22436;DHT22;11385;50.822;4.324;2023-01-26T01:57:35;1.60;99.90
22436;DHT22;11385;50.822;4.324;2023-01-26T02:00:08;1.60;99.90
22436;DHT22;11385;50.822;4.324;2023-01-26T02:02:38;1.60;99.90
22436;DHT22;11385;50.822;4.324;2023-01-26T02:05:12;1.60;99.90
22436;DHT22;11385;50.822;4.324;2023-01-26T02:07:38;1.70;99.90
22436;DHT22;11385;50.822;4.324;2023-01-26T02:10:05;1.70;99.90
22436;DHT22;11385;50.822;4.324;2023-01-26T02:12:50;1.60;99.90
22436;DHT22;11385;50.822;4.324;2023-01-26T02:15:18;1.60;99.90
22436;DHT22;11385;50.822;4.324;2023-01-26T02:17:45;1.70;99.90
22436;DHT22;11385;50.822;4.324;2023-01-26T02:20:31;1.60;99.90
22436;DHT22;11385;50.822;4.324;2023-01-26T02:23:24;1.80;99.90
22436;DHT22;11385;50.822;4.324;2023-01-26T02:26:10;1.70;99.90
22436;DHT22;11385;50.822;4.324;2023-01-26T02:28:39;1.70;99.90
22436;DHT22;11385;50.822;4.324;2023-01-26T02:31:06;1.70;99.90
22436;DHT22;11385;50.822;4.324;2023-01-26T02:33:34;1.60;99.90
22436;DHT22;11385;50.822;4.324;2023-01-26T02:36:01;1.50;99.90
22436;DHT22;11385;50.822;4.324;2023-01-26T02:38:38;1.50;99.90
22436;DHT22;11385;50.822;4.324;2023-01-26T02:41:08;1.60;99.90
22436;DHT22;11385;50.822;4.324;2023-01-26T02:43:35;1.60;99.90
22436;DHT22;11385;50.822;4.324;2023-01-26T02:46:02;1.60;99.90
22436;DHT22;11385;50.822;4.324;2023-01-26T02:48:29;1.50;99.90
22436;DHT22;11385;50.822;4.324;2023-01-26T02:51:02;1.60;99.90
22436;DHT22;11385;50.822;4.324;2023-01-26T02:53:30;1.60;99.90
22436;DHT22;11385;50.822;4.324;2023-01-26T02:55:59;1.60;99.90
22436;DHT22;11385;50.822;4.324;2023-01-26T02:58:25;1.60;99.90
22436;DHT22;11385;50.822;4.324;2023-01-26T03:00:52;1.60;99.90
22436;DHT22;11385;50.822;4.324;2023-01-26T03:03:22;1.60;99.90
22436;DHT22;11385;50.822;4.324;2023-01-26T03:05:49;1.60;99.90
22436;DHT22;11385;50.822;4.324;2023-01-26T03:08:16;1.70;99.90
22436;DHT22;11385;50.822;4.324;2023-01-26T03:10:43;1.80;99.90
22436;DHT22;11385;50.822;4.324;2023-01-26T03:13:12;1.80;99.90
22436;DHT22;11385;50.822;4.324;2023-01-26T03:15:39;1.80;99.90
22436;DHT22;11385;50.822;4.324;2023-01-26T03:18:14;1.80;99.90
22436;DHT22;11385;50.822;4.324;2023-01-26T03:20:47;1.90;99.90
22436;DHT22;11385;50.822;4.324;2023-01-26T03:23:19;1.80;99.90
22436;DHT22;11385;50.822;4.324;2023-01-26T03:25:51;1.70;99.90
22436;DHT22;11385;50.822;4.324;2023-01-26T03:28:24;1.70;99.90
22436;DHT22;11385;50.822;4.324;2023-01-26T03:30:53;1.80;99.90
22436;DHT22;11385;50.822;4.324;2023-01-26T03:33:20;1.90;99.90
22436;DHT22;11385;50.822;4.324;2023-01-26T03:35:47;1.80;99.90
22436;DHT22;11385;50.822;4.324;2023-01-26T03:38:14;1.80;99.90
22436;DHT22;11385;50.822;4.324;2023-01-26T03:40:40;1.80;99.90
22436;DHT22;11385;50.822;4.324;2023-01-26T03:43:13;1.80;99.90
22436;DHT22;11385;50.822;4.324;2023-01-26T03:45:45;1.80;99.90
22436;DHT22;11385;50.822;4.324;2023-01-26T03:48:17;1.70;99.90
22436;DHT22;11385;50.822;4.324;2023-01-26T03:50:49;1.80;99.90
22436;DHT22;11385;50.822;4.324;2023-01-26T03:53:23;1.70;99.90
22436;DHT22;11385;50.822;4.324;2023-01-26T03:55:55;1.80;99.90
22436;DHT22;11385;50.822;4.324;2023-01-26T03:58:27;1.70;99.90
22436;DHT22;11385;50.822;4.324;2023-01-26T04:00:56;1.60;99.90
22436;DHT22;11385;50.822;4.324;2023-01-26T04:03:22;1.70;99.90
22436;DHT22;11385;50.822;4.324;2023-01-26T04:05:57;1.80;99.90
22436;DHT22;11385;50.822;4.324;2023-01-26T04:08:29;1.80;99.90
22436;DHT22;11385;50.822;4.324;2023-01-26T04:10:56;1.80;99.90
22436;DHT22;11385;50.822;4.324;2023-01-26T04:13:23;1.70;99.90
22436;DHT22;11385;50.822;4.324;2023-01-26T04:15:55;1.70;99.90
22436;DHT22;11385;50.822;4.324;2023-01-26T04:18:27;1.70;99.90
22436;DHT22;11385;50.822;4.324;2023-01-26T04:21:03;1.70;99.90
22436;DHT22;11385;50.822;4.324;2023-01-26T04:23:36;1.80;99.90
22436;DHT22;11385;50.822;4.324;2023-01-26T04:26:02;1.80;99.90
22436;DHT22;11385;50.822;4.324;2023-01-26T04:28:29;1.70;99.90
22436;DHT22;11385;50.822;4.324;2023-01-26T04:30:56;1.70;99.90
22436;DHT22;11385;50.822;4.324;2023-01-26T04:33:22;1.60;99.90
22436;DHT22;11385;50.822;4.324;2023-01-26T04:35:49;1.50;99.90
22436;DHT22;11385;50.822;4.324;2023-01-26T04:38:16;1.60;99.90
22436;DHT22;11385;50.822;4.324;2023-01-26T04:40:42;1.60;99.90
22436;DHT22;11385;50.822;4.324;2023-01-26T04:43:09;1.70;99.90
22436;DHT22;11385;50.822;4.324;2023-01-26T04:45:35;1.70;99.90
22436;DHT22;11385;50.822;4.324;2023-01-26T04:48:02;1.80;99.90
22436;DHT22;11385;50.822;4.324;2023-01-26T04:50:28;1.60;99.90
22436;DHT22;11385;50.822;4.324;2023-01-26T04:52:55;1.70;99.90
22436;DHT22;11385;50.822;4.324;2023-01-26T04:55:22;1.70;99.90
22436;DHT22;11385;50.822;4.324;2023-01-26T04:57:48;1.70;99.90
22436;DHT22;11385;50.822;4.324;2023-01-26T05:00:15;1.80;99.90
22436;DHT22;11385;50.822;4.324;2023-01-26T05:02:42;1.80;99.90
22436;DHT22;11385;50.822;4.324;2023-01-26T05:05:09;1.90;99.90
22436;DHT22;11385;50.822;4.324;2023-01-26T05:07:35;1.90;99.90
22436;DHT22;11385;50.822;4.324;2023-01-26T05:10:02;1.90;99.90
22436;DHT22;11385;50.822;4.324;2023-01-26T05:12:29;1.90;99.90
22436;DHT22;11385;50.822;4.324;2023-01-26T05:14:58;1.80;99.90
22436;DHT22;11385;50.822;4.324;2023-01-26T05:17:25;1.90;99.90
22436;DHT22;11385;50.822;4.324;2023-01-26T05:19:51;1.80;99.90
22436;DHT22;11385;50.822;4.324;2023-01-26T05:22:18;1.80;99.90
22436;DHT22;11385;50.822;4.324;2023-01-26T05:24:45;1.80;99.90
22436;DHT22;11385;50.822;4.324;2023-01-26T05:27:11;1.80;99.90
22436;DHT22;11385;50.822;4.324;2023-01-26T05:29:44;1.60;99.90
22436;DHT22;11385;50.822;4.324;2023-01-26T05:32:10;1.60;99.90
22436;DHT22;11385;50.822;4.324;2023-01-26T05:34:37;1.70;99.90
22436;DHT22;11385;50.822;4.324;2023-01-26T05:37:04;1.70;99.90
22436;DHT22;11385;50.822;4.324;2023-01-26T05:39:30;1.90;99.90
22436;DHT22;11385;50.822;4.324;2023-01-26T05:41:57;1.80;99.90
22436;DHT22;11385;50.822;4.324;2023-01-26T05:44:24;1.70;99.90
22436;DHT22;11385;50.822;4.324;2023-01-26T05:46:51;1.60;99.90
22436;DHT22;11385;50.822;4.324;2023-01-26T05:49:17;1.60;99.90
22436;DHT22;11385;50.822;4.324;2023-01-26T05:51:44;1.70;99.90
22436;DHT22;11385;50.822;4.324;2023-01-26T05:54:11;1.70;99.90
22436;DHT22;11385;50.822;4.324;2023-01-26T05:56:37;1.60;99.90
22436;DHT22;11385;50.822;4.324;2023-01-26T05:59:04;1.70;99.90
22436;DHT22;11385;50.822;4.324;2023-01-26T06:01:30;1.80;99.90
22436;DHT22;11385;50.822;4.324;2023-01-26T06:03:57;1.90;99.90
22436;DHT22;11385;50.822;4.324;2023-01-26T06:06:24;1.90;99.90
22436;DHT22;11385;50.822;4.324;2023-01-26T06:08:50;1.80;99.90
22436;DHT22;11385;50.822;4.324;2023-01-26T06:11:17;1.90;99.90
22436;DHT22;11385;50.822;4.324;2023-01-26T06:13:44;2.00;99.90
22436;DHT22;11385;50.822;4.324;2023-01-26T06:16:10;1.90;99.90
22436;DHT22;11385;50.822;4.324;2023-01-26T06:18:37;1.80;99.90
22436;DHT22;11385;50.822;4.324;2023-01-26T06:21:04;1.80;99.90
22436;DHT22;11385;50.822;4.324;2023-01-26T06:23:30;1.80;99.90
22436;DHT22;11385;50.822;4.324;2023-01-26T06:25:59;1.70;99.90
22436;DHT22;11385;50.822;4.324;2023-01-26T06:28:27;1.70;99.90
22436;DHT22;11385;50.822;4.324;2023-01-26T06:31:03;1.70;99.90
22436;DHT22;11385;50.822;4.324;2023-01-26T06:33:32;1.60;99.90
22436;DHT22;11385;50.822;4.324;2023-01-26T06:36:04;1.80;99.90
22436;DHT22;11385;50.822;4.324;2023-01-26T06:38:31;1.90;99.90
22436;DHT22;11385;50.822;4.324;2023-01-26T06:41:00;1.70;99.90
22436;DHT22;11385;50.822;4.324;2023-01-26T06:43:29;1.90;99.90
22436;DHT22;11385;50.822;4.324;2023-01-26T06:45:56;1.90;99.90
22436;DHT22;11385;50.822;4.324;2023-01-26T06:48:25;1.90;99.90
22436;DHT22;11385;50.822;4.324;2023-01-26T06:50:52;2.00;99.90
22436;DHT22;11385;50.822;4.324;2023-01-26T06:53:29;2.00;99.90
22436;DHT22;11385;50.822;4.324;2023-01-26T06:55:57;2.00;99.90
22436;DHT22;11385;50.822;4.324;2023-01-26T06:58:24;1.90;99.90
22436;DHT22;11385;50.822;4.324;2023-01-26T07:00:50;1.90;99.90
22436;DHT22;11385;50.822;4.324;2023-01-26T07:03:17;2.00;99.90
22436;DHT22;11385;50.822;4.324;2023-01-26T07:05:46;2.10;99.90
22436;DHT22;11385;50.822;4.324;2023-01-26T07:08:14;2.10;99.90
22436;DHT22;11385;50.822;4.324;2023-01-26T07:10:50;2.10;99.90
22436;DHT22;11385;50.822;4.324;2023-01-26T07:13:20;2.10;99.90
22436;DHT22;11385;50.822;4.324;2023-01-26T07:15:47;2.00;99.90
22436;DHT22;11385;50.822;4.324;2023-01-26T07:18:13;2.00;99.90
22436;DHT22;11385;50.822;4.324;2023-01-26T07:20:42;2.10;99.90
22436;DHT22;11385;50.822;4.324;2023-01-26T07:23:08;2.10;99.90
22436;DHT22;11385;50.822;4.324;2023-01-26T07:25:36;2.10;99.90
22436;DHT22;11385;50.822;4.324;2023-01-26T07:28:03;2.10;99.90
22436;DHT22;11385;50.822;4.324;2023-01-26T07:30:34;2.10;99.90
22436;DHT22;11385;50.822;4.324;2023-01-26T07:33:01;2.10;99.90
22436;DHT22;11385;50.822;4.324;2023-01-26T07:35:29;2.00;99.90
22436;DHT22;11385;50.822;4.324;2023-01-26T07:37:55;2.10;99.90
22436;DHT22;11385;50.822;4.324;2023-01-26T07:40:24;2.10;99.90
22436;DHT22;11385;50.822;4.324;2023-01-26T07:42:50;2.10;99.90
22436;DHT22;11385;50.822;4.324;2023-01-26T07:45:17;2.30;99.90
22436;DHT22;11385;50.822;4.324;2023-01-26T07:47:44;2.20;99.90
22436;DHT22;11385;50.822;4.324;2023-01-26T07:50:10;2.10;99.90
22436;DHT22;11385;50.822;4.324;2023-01-26T07:52:39;2.10;99.90
22436;DHT22;11385;50.822;4.324;2023-01-26T07:55:06;2.30;99.90
22436;DHT22;11385;50.822;4.324;2023-01-26T07:57:33;2.40;99.90
22436;DHT22;11385;50.822;4.324;2023-01-26T08:00:00;2.40;99.90
22436;DHT22;11385;50.822;4.324;2023-01-26T08:02:29;2.40;99.90
22436;DHT22;11385;50.822;4.324;2023-01-26T08:04:55;2.40;99.90
22436;DHT22;11385;50.822;4.324;2023-01-26T08:07:22;2.30;99.90
22436;DHT22;11385;50.822;4.324;2023-01-26T08:09:48;2.30;99.90
22436;DHT22;11385;50.822;4.324;2023-01-26T08:12:15;2.30;99.90
22436;DHT22;11385;50.822;4.324;2023-01-26T08:14:42;2.40;99.90
22436;DHT22;11385;50.822;4.324;2023-01-26T08:17:09;2.40;99.90
22436;DHT22;11385;50.822;4.324;2023-01-26T08:19:36;2.10;99.90
22436;DHT22;11385;50.822;4.324;2023-01-26T08:22:02;2.20;99.90
22436;DHT22;11385;50.822;4.324;2023-01-26T08:24:29;2.20;99.90
22436;DHT22;11385;50.822;4.324;2023-01-26T08:26:56;2.40;99.90
22436;DHT22;11385;50.822;4.324;2023-01-26T08:29:22;2.50;99.90
22436;DHT22;11385;50.822;4.324;2023-01-26T08:31:49;2.50;99.90
22436;DHT22;11385;50.822;4.324;2023-01-26T08:34:16;2.50;99.90
22436;DHT22;11385;50.822;4.324;2023-01-26T08:36:43;2.50;99.90
22436;DHT22;11385;50.822;4.324;2023-01-26T08:39:09;2.50;99.90
22436;DHT22;11385;50.822;4.324;2023-01-26T08:41:36;2.50;99.90
22436;DHT22;11385;50.822;4.324;2023-01-26T08:44:05;2.50;99.90
22436;DHT22;11385;50.822;4.324;2023-01-26T08:46:32;2.60;99.90
22436;DHT22;11385;50.822;4.324;2023-01-26T08:48:59;2.70;99.90
22436;DHT22;11385;50.822;4.324;2023-01-26T08:51:26;2.80;99.90
22436;DHT22;11385;50.822;4.324;2023-01-26T08:53:53;2.80;99.90
22436;DHT22;11385;50.822;4.324;2023-01-26T08:56:20;2.70;99.90
22436;DHT22;11385;50.822;4.324;2023-01-26T08:58:47;2.70;99.90
22436;DHT22;11385;50.822;4.324;2023-01-26T09:01:15;2.70;99.90
22436;DHT22;11385;50.822;4.324;2023-01-26T09:03:42;2.90;99.90
22436;DHT22;11385;50.822;4.324;2023-01-26T09:06:10;3.00;99.90
22436;DHT22;11385;50.822;4.324;2023-01-26T09:08:39;3.00;99.90
22436;DHT22;11385;50.822;4.324;2023-01-26T09:11:07;3.00;99.90
22436;DHT22;11385;50.822;4.324;2023-01-26T09:13:34;3.00;99.90
22436;DHT22;11385;50.822;4.324;2023-01-26T09:16:14;3.10;99.90
22436;DHT22;11385;50.822;4.324;2023-01-26T09:18:40;3.20;99.90
22436;DHT22;11385;50.822;4.324;2023-01-26T09:21:08;3.30;99.90
22436;DHT22;11385;50.822;4.324;2023-01-26T09:23:35;3.30;99.90
22436;DHT22;11385;50.822;4.324;2023-01-26T09:26:03;3.40;99.90
22436;DHT22;11385;50.822;4.324;2023-01-26T09:28:30;3.50;99.90
22436;DHT22;11385;50.822;4.324;2023-01-26T09:31:01;3.40;99.90
22436;DHT22;11385;50.822;4.324;2023-01-26T09:33:25;3.40;99.90
22436;DHT22;11385;50.822;4.324;2023-01-26T09:35:53;3.50;99.90
22436;DHT22;11385;50.822;4.324;2023-01-26T09:38:20;3.60;99.90
22436;DHT22;11385;50.822;4.324;2023-01-26T09:40:57;3.60;99.90
22436;DHT22;11385;50.822;4.324;2023-01-26T09:43:35;3.50;99.90
22436;DHT22;11385;50.822;4.324;2023-01-26T09:46:11;3.60;99.90
22436;DHT22;11385;50.822;4.324;2023-01-26T09:49:02;3.70;99.90
22436;DHT22;11385;50.822;4.324;2023-01-26T09:51:37;3.80;99.90
22436;DHT22;11385;50.822;4.324;2023-01-26T09:54:43;3.90;99.90
22436;DHT22;11385;50.822;4.324;2023-01-26T09:56:55;3.80;99.90
22436;DHT22;11385;50.822;4.324;2023-01-26T09:59:44;3.70;99.90
22436;DHT22;11385;50.822;4.324;2023-01-26T10:02:21;3.80;99.90
22436;DHT22;11385;50.822;4.324;2023-01-26T10:04:50;3.70;99.90
22436;DHT22;11385;50.822;4.324;2023-01-26T10:07:18;3.80;99.90
22436;DHT22;11385;50.822;4.324;2023-01-26T10:09:47;3.90;99.90
22436;DHT22;11385;50.822;4.324;2023-01-26T10:12:21;3.90;99.90
22436;DHT22;11385;50.822;4.324;2023-01-26T10:14:54;3.80;99.90
22436;DHT22;11385;50.822;4.324;2023-01-26T10:17:30;3.80;99.90
22436;DHT22;11385;50.822;4.324;2023-01-26T10:20:06;4.00;99.90
22436;DHT22;11385;50.822;4.324;2023-01-26T10:22:47;4.10;99.90
22436;DHT22;11385;50.822;4.324;2023-01-26T10:27:52;4.10;99.90
22436;DHT22;11385;50.822;4.324;2023-01-26T10:30:20;4.30;99.90
22436;DHT22;11385;50.822;4.324;2023-01-26T10:32:50;4.40;99.90
22436;DHT22;11385;50.822;4.324;2023-01-26T10:35:21;4.40;99.90
22436;DHT22;11385;50.822;4.324;2023-01-26T10:37:48;4.40;99.90
22436;DHT22;11385;50.822;4.324;2023-01-26T10:40:15;4.50;99.90
22436;DHT22;11385;50.822;4.324;2023-01-26T10:43:02;4.40;99.90
22436;DHT22;11385;50.822;4.324;2023-01-26T10:52:22;4.30;99.90
22436;DHT22;11385;50.822;4.324;2023-01-26T10:54:34;4.40;99.90
22436;DHT22;11385;50.822;4.324;2023-01-26T10:57:04;4.30;99.90
22436;DHT22;11385;50.822;4.324;2023-01-26T10:59:41;4.40;99.90
22436;DHT22;11385;50.822;4.324;2023-01-26T11:02:28;4.60;99.90
22436;DHT22;11385;50.822;4.324;2023-01-26T11:05:20;4.70;99.90
22436;DHT22;11385;50.822;4.324;2023-01-26T11:07:51;4.90;99.90
22436;DHT22;11385;50.822;4.324;2023-01-26T11:10:24;4.80;99.90
22436;DHT22;11385;50.822;4.324;2023-01-26T11:12:51;5.00;99.90
22436;DHT22;11385;50.822;4.324;2023-01-26T11:15:22;5.00;99.90
22436;DHT22;11385;50.822;4.324;2023-01-26T11:17:58;4.90;99.90
22436;DHT22;11385;50.822;4.324;2023-01-26T11:20:36;4.90;99.90
22436;DHT22;11385;50.822;4.324;2023-01-26T11:23:15;4.70;99.90
22436;DHT22;11385;50.822;4.324;2023-01-26T11:26:00;4.90;99.90
22436;DHT22;11385;50.822;4.324;2023-01-26T11:31:13;5.10;99.90
22436;DHT22;11385;50.822;4.324;2023-01-26T11:33:51;5.10;99.90
22436;DHT22;11385;50.822;4.324;2023-01-26T11:39:24;5.00;99.90
22436;DHT22;11385;50.822;4.324;2023-01-26T11:41:56;5.10;99.90
22436;DHT22;11385;50.822;4.324;2023-01-26T11:44:29;5.10;99.90
22436;DHT22;11385;50.822;4.324;2023-01-26T11:47:16;5.10;99.90
22436;DHT22;11385;50.822;4.324;2023-01-26T11:49:50;5.30;99.90
22436;DHT22;11385;50.822;4.324;2023-01-26T11:52:28;5.30;99.90
22436;DHT22;11385;50.822;4.324;2023-01-26T11:57:34;5.30;99.90
22436;DHT22;11385;50.822;4.324;2023-01-26T12:00:00;5.20;99.90
22436;DHT22;11385;50.822;4.324;2023-01-26T12:02:34;5.30;99.90
22436;DHT22;11385;50.822;4.324;2023-01-26T12:05:10;5.30;99.90
22436;DHT22;11385;50.822;4.324;2023-01-26T12:07:47;5.40;99.90
22436;DHT22;11385;50.822;4.324;2023-01-26T12:10:26;5.50;99.90
22436;DHT22;11385;50.822;4.324;2023-01-26T12:13:00;5.60;99.90
22436;DHT22;11385;50.822;4.324;2023-01-26T12:15:32;5.60;99.90
22436;DHT22;11385;50.822;4.324;2023-01-26T12:18:04;5.60;99.90
22436;DHT22;11385;50.822;4.324;2023-01-26T12:20:38;5.60;99.90
22436;DHT22;11385;50.822;4.324;2023-01-26T12:23:25;5.70;99.90
22436;DHT22;11385;50.822;4.324;2023-01-26T12:25:54;5.60;99.90
22436;DHT22;11385;50.822;4.324;2023-01-26T12:28:30;5.70;99.90
22436;DHT22;11385;50.822;4.324;2023-01-26T12:31:03;5.70;99.90
22436;DHT22;11385;50.822;4.324;2023-01-26T12:33:31;5.90;99.90
22436;DHT22;11385;50.822;4.324;2023-01-26T12:36:34;5.90;99.90
22436;DHT22;11385;50.822;4.324;2023-01-26T12:39:21;5.90;99.90
22436;DHT22;11385;50.822;4.324;2023-01-26T12:42:13;5.80;99.90
22436;DHT22;11385;50.822;4.324;2023-01-26T12:44:41;5.80;99.90
22436;DHT22;11385;50.822;4.324;2023-01-26T12:47:15;6.20;99.90
22436;DHT22;11385;50.822;4.324;2023-01-26T12:49:55;6.50;99.90
22436;DHT22;11385;50.822;4.324;2023-01-26T12:52:30;6.50;99.90
22436;DHT22;11385;50.822;4.324;2023-01-26T12:55:15;6.80;99.90
22436;DHT22;11385;50.822;4.324;2023-01-26T12:58:01;6.90;99.90
22436;DHT22;11385;50.822;4.324;2023-01-26T13:00:39;7.10;99.90
22436;DHT22;11385;50.822;4.324;2023-01-26T13:03:17;7.10;99.90
22436;DHT22;11385;50.822;4.324;2023-01-26T13:08:47;7.30;99.90
22436;DHT22;11385;50.822;4.324;2023-01-26T13:11:09;7.50;99.90
22436;DHT22;11385;50.822;4.324;2023-01-26T13:16:31;8.00;99.90
22436;DHT22;11385;50.822;4.324;2023-01-26T13:19:00;8.10;99.90
22436;DHT22;11385;50.822;4.324;2023-01-26T13:21:40;8.10;99.90
22436;DHT22;11385;50.822;4.324;2023-01-26T13:23:56;8.20;99.90
22436;DHT22;11385;50.822;4.324;2023-01-26T13:26:42;8.20;99.90
22436;DHT22;11385;50.822;4.324;2023-01-26T13:29:25;8.30;99.90
22436;DHT22;11385;50.822;4.324;2023-01-26T13:31:49;8.20;99.90
22436;DHT22;11385;50.822;4.324;2023-01-26T13:34:18;8.20;99.90
22436;DHT22;11385;50.822;4.324;2023-01-26T13:36:47;8.10;99.90
22436;DHT22;11385;50.822;4.324;2023-01-26T13:39:23;7.80;99.90
22436;DHT22;11385;50.822;4.324;2023-01-26T13:41:47;7.90;99.90
22436;DHT22;11385;50.822;4.324;2023-01-26T13:44:17;7.90;99.90
22436;DHT22;11385;50.822;4.324;2023-01-26T13:46:50;7.80;99.90
22436;DHT22;11385;50.822;4.324;2023-01-26T13:49:24;7.80;99.90
22436;DHT22;11385;50.822;4.324;2023-01-26T13:51:51;7.80;99.90
22436;DHT22;11385;50.822;4.324;2023-01-26T13:54:18;7.70;99.90
22436;DHT22;11385;50.822;4.324;2023-01-26T13:59:24;7.70;99.90
22436;DHT22;11385;50.822;4.324;2023-01-26T14:01:53;7.80;99.90
22436;DHT22;11385;50.822;4.324;2023-01-26T14:04:22;7.70;99.90
22436;DHT22;11385;50.822;4.324;2023-01-26T14:07:00;7.80;99.90
22436;DHT22;11385;50.822;4.324;2023-01-26T14:09:32;7.60;99.90
22436;DHT22;11385;50.822;4.324;2023-01-26T14:12:02;7.50;99.90
22436;DHT22;11385;50.822;4.324;2023-01-26T14:14:33;7.50;99.90
22436;DHT22;11385;50.822;4.324;2023-01-26T14:17:05;7.70;99.90
22436;DHT22;11385;50.822;4.324;2023-01-26T14:19:37;7.80;99.90
22436;DHT22;11385;50.822;4.324;2023-01-26T14:22:09;7.80;99.90
22436;DHT22;11385;50.822;4.324;2023-01-26T14:24:37;7.70;99.90
22436;DHT22;11385;50.822;4.324;2023-01-26T14:29:40;7.80;99.90
22436;DHT22;11385;50.822;4.324;2023-01-26T14:32:12;8.00;99.90
22436;DHT22;11385;50.822;4.324;2023-01-26T14:34:38;8.20;99.90
22436;DHT22;11385;50.822;4.324;2023-01-26T14:37:12;8.00;99.90
22436;DHT22;11385;50.822;4.324;2023-01-26T14:39:41;7.80;99.90
22436;DHT22;11385;50.822;4.324;2023-01-26T14:42:16;7.90;99.90
22436;DHT22;11385;50.822;4.324;2023-01-26T14:44:43;7.80;99.90
22436;DHT22;11385;50.822;4.324;2023-01-26T14:47:27;7.90;99.90
22436;DHT22;11385;50.822;4.324;2023-01-26T14:49:58;8.00;99.90
22436;DHT22;11385;50.822;4.324;2023-01-26T14:52:29;8.00;99.90
22436;DHT22;11385;50.822;4.324;2023-01-26T14:54:58;8.10;99.90
22436;DHT22;11385;50.822;4.324;2023-01-26T14:57:27;7.70;99.90
22436;DHT22;11385;50.822;4.324;2023-01-26T14:59:56;7.60;99.90
22436;DHT22;11385;50.822;4.324;2023-01-26T15:02:34;7.60;99.90
22436;DHT22;11385;50.822;4.324;2023-01-26T15:05:15;7.50;99.90
22436;DHT22;11385;50.822;4.324;2023-01-26T15:08:03;7.60;99.90
22436;DHT22;11385;50.822;4.324;2023-01-26T15:10:37;7.50;99.90
22436;DHT22;11385;50.822;4.324;2023-01-26T15:13:23;7.70;99.90
22436;DHT22;11385;50.822;4.324;2023-01-26T15:16:01;7.80;99.90
22436;DHT22;11385;50.822;4.324;2023-01-26T15:18:31;7.70;99.90
22436;DHT22;11385;50.822;4.324;2023-01-26T15:21:08;7.60;99.90
22436;DHT22;11385;50.822;4.324;2023-01-26T15:23:31;7.50;99.90
22436;DHT22;11385;50.822;4.324;2023-01-26T15:26:07;7.60;99.90
22436;DHT22;11385;50.822;4.324;2023-01-26T15:28:35;7.60;99.90
22436;DHT22;11385;50.822;4.324;2023-01-26T15:31:03;7.70;99.90
22436;DHT22;11385;50.822;4.324;2023-01-26T15:33:37;7.80;99.90
22436;DHT22;11385;50.822;4.324;2023-01-26T15:36:05;8.10;99.90
22436;DHT22;11385;50.822;4.324;2023-01-26T15:38:32;8.00;99.90
22436;DHT22;11385;50.822;4.324;2023-01-26T15:41:00;8.10;99.90
22436;DHT22;11385;50.822;4.324;2023-01-26T15:43:27;8.10;99.90
22436;DHT22;11385;50.822;4.324;2023-01-26T15:45:56;8.20;99.90
22436;DHT22;11385;50.822;4.324;2023-01-26T15:48:24;8.30;99.90
22436;DHT22;11385;50.822;4.324;2023-01-26T15:50:52;8.30;99.90
22436;DHT22;11385;50.822;4.324;2023-01-26T15:53:20;8.20;99.90
22436;DHT22;11385;50.822;4.324;2023-01-26T15:55:48;7.90;99.90
22436;DHT22;11385;50.822;4.324;2023-01-26T15:58:18;7.70;99.90
22436;DHT22;11385;50.822;4.324;2023-01-26T16:00:45;7.80;99.90
22436;DHT22;11385;50.822;4.324;2023-01-26T16:03:14;7.90;99.90
22436;DHT22;11385;50.822;4.324;2023-01-26T16:05:41;7.80;99.90
22436;DHT22;11385;50.822;4.324;2023-01-26T16:08:09;7.70;99.90
22436;DHT22;11385;50.822;4.324;2023-01-26T16:10:38;7.70;99.90
22436;DHT22;11385;50.822;4.324;2023-01-26T16:13:08;7.70;99.90
22436;DHT22;11385;50.822;4.324;2023-01-26T16:15:41;7.80;99.90
22436;DHT22;11385;50.822;4.324;2023-01-26T16:18:08;7.80;99.90
22436;DHT22;11385;50.822;4.324;2023-01-26T16:20:37;7.60;99.90
22436;DHT22;11385;50.822;4.324;2023-01-26T16:23:24;7.60;99.90
22436;DHT22;11385;50.822;4.324;2023-01-26T16:25:52;7.70;99.90
22436;DHT22;11385;50.822;4.324;2023-01-26T16:28:19;7.70;99.90
22436;DHT22;11385;50.822;4.324;2023-01-26T16:30:46;7.90;99.90
22436;DHT22;11385;50.822;4.324;2023-01-26T16:33:18;7.90;99.90
22436;DHT22;11385;50.822;4.324;2023-01-26T16:35:47;8.00;99.90